sensor_id;sensor_type;location;lat;lon;timestamp;P1;durP1;ratioP1;P2;durP2;ratioP2
21206;SDS011;10761;48.532;8.026;2023-03-01T13:51:05;22.33;;;17.27;;
21206;SDS011;10761;48.532;8.026;2023-03-01T13:53:36;22.40;;;18.08;;
21206;SDS011;10761;48.532;8.026;2023-03-01T13:56:09;24.10;;;17.70;;
21206;SDS011;10761;48.532;8.026;2023-03-01T13:58:52;21.48;;;17.55;;
21206;SDS011;10761;48.532;8.026;2023-03-01T14:01:24;23.05;;;17.10;;
21206;SDS011;10761;48.532;8.026;2023-03-01T14:03:50;23.73;;;17.50;;
21206;SDS011;10761;48.532;8.026;2023-03-01T14:06:16;22.35;;;17.35;;
21206;SDS011;10761;48.532;8.026;2023-03-01T14:08:52;26.45;;;18.95;;
21206;SDS011;10761;48.532;8.026;2023-03-01T14:14:41;20.67;;;17.08;;
21206;SDS011;10761;48.532;8.026;2023-03-01T14:17:14;25.20;;;18.00;;
21206;SDS011;10761;48.532;8.026;2023-03-01T14:20:07;23.85;;;17.55;;
21206;SDS011;10761;48.532;8.026;2023-03-01T14:22:36;27.58;;;17.60;;
21206;SDS011;10761;48.532;8.026;2023-03-01T14:25:06;23.52;;;17.60;;
21206;SDS011;10761;48.532;8.026;2023-03-01T14:27:59;23.48;;;18.10;;
21206;SDS011;10761;48.532;8.026;2023-03-01T14:30:32;25.40;;;17.98;;
21206;SDS011;10761;48.532;8.026;2023-03-01T14:33:01;23.55;;;16.98;;
21206;SDS011;10761;48.532;8.026;2023-03-01T14:35:35;23.75;;;18.52;;
21206;SDS011;10761;48.532;8.026;2023-03-01T14:38:01;23.10;;;18.08;;
21206;SDS011;10761;48.532;8.026;2023-03-01T14:43:00;22.15;;;17.60;;
21206;SDS011;10761;48.532;8.026;2023-03-01T14:45:33;23.25;;;18.08;;
21206;SDS011;10761;48.532;8.026;2023-03-01T14:47:59;24.58;;;18.25;;
21206;SDS011;10761;48.532;8.026;2023-03-01T14:50:28;24.98;;;18.73;;
21206;SDS011;10761;48.532;8.026;2023-03-01T14:52:59;26.98;;;17.63;;
21206;SDS011;10761;48.532;8.026;2023-03-01T14:55:31;26.70;;;17.63;;
21206;SDS011;10761;48.532;8.026;2023-03-01T14:58:02;21.92;;;17.63;;
21206;SDS011;10761;48.532;8.026;2023-03-01T15:00:31;29.63;;;18.25;;
21206;SDS011;10761;48.532;8.026;2023-03-01T15:03:00;22.95;;;17.58;;
21206;SDS011;10761;48.532;8.026;2023-03-01T15:05:38;22.17;;;17.42;;
21206;SDS011;10761;48.532;8.026;2023-03-01T15:08:05;24.70;;;18.58;;
21206;SDS011;10761;48.532;8.026;2023-03-01T15:10:33;24.27;;;19.27;;
21206;SDS011;10761;48.532;8.026;2023-03-01T15:13:11;24.45;;;18.77;;
21206;SDS011;10761;48.532;8.026;2023-03-01T15:15:38;24.10;;;17.80;;
21206;SDS011;10761;48.532;8.026;2023-03-01T15:18:15;23.95;;;18.15;;
21206;SDS011;10761;48.532;8.026;2023-03-01T15:20:46;22.73;;;17.95;;
21206;SDS011;10761;48.532;8.026;2023-03-01T15:23:26;27.70;;;18.05;;
21206;SDS011;10761;48.532;8.026;2023-03-01T15:25:54;25.60;;;17.93;;
21206;SDS011;10761;48.532;8.026;2023-03-01T15:28:22;20.98;;;17.55;;
21206;SDS011;10761;48.532;8.026;2023-03-01T15:30:54;23.52;;;17.73;;
21206;SDS011;10761;48.532;8.026;2023-03-01T15:33:30;25.48;;;18.30;;
21206;SDS011;10761;48.532;8.026;2023-03-01T15:44:25;26.98;;;17.63;;
21206;SDS011;10761;48.532;8.026;2023-03-01T15:46:55;25.17;;;17.92;;
21206;SDS011;10761;48.532;8.026;2023-03-01T15:49:34;24.23;;;18.75;;
21206;SDS011;10761;48.532;8.026;2023-03-01T15:52:04;26.17;;;18.38;;
21206;SDS011;10761;48.532;8.026;2023-03-01T15:54:38;22.40;;;18.20;;
21206;SDS011;10761;48.532;8.026;2023-03-01T15:57:08;24.08;;;18.52;;
21206;SDS011;10761;48.532;8.026;2023-03-01T15:59:38;25.55;;;18.92;;
21206;SDS011;10761;48.532;8.026;2023-03-01T16:02:08;24.98;;;18.52;;
21206;SDS011;10761;48.532;8.026;2023-03-01T16:07:01;23.90;;;17.98;;
21206;SDS011;10761;48.532;8.026;2023-03-01T16:09:27;23.85;;;18.38;;
21206;SDS011;10761;48.532;8.026;2023-03-01T16:11:53;25.42;;;18.05;;
21206;SDS011;10761;48.532;8.026;2023-03-01T16:14:19;22.15;;;17.05;;
21206;SDS011;10761;48.532;8.026;2023-03-01T16:16:45;23.02;;;16.77;;
21206;SDS011;10761;48.532;8.026;2023-03-01T16:19:12;24.02;;;17.70;;
21206;SDS011;10761;48.532;8.026;2023-03-01T16:21:39;25.90;;;18.50;;
21206;SDS011;10761;48.532;8.026;2023-03-01T16:24:04;25.35;;;18.20;;
21206;SDS011;10761;48.532;8.026;2023-03-01T16:26:31;23.45;;;17.77;;
21206;SDS011;10761;48.532;8.026;2023-03-01T16:28:57;24.65;;;19.05;;
21206;SDS011;10761;48.532;8.026;2023-03-01T16:31:23;28.20;;;18.30;;
21206;SDS011;10761;48.532;8.026;2023-03-01T16:33:52;23.83;;;18.15;;
21206;SDS011;10761;48.532;8.026;2023-03-01T16:36:19;23.92;;;18.40;;
21206;SDS011;10761;48.532;8.026;2023-03-01T16:38:48;26.58;;;18.92;;
21206;SDS011;10761;48.532;8.026;2023-03-01T16:41:16;24.92;;;18.85;;
21206;SDS011;10761;48.532;8.026;2023-03-01T16:43:43;24.50;;;18.20;;
21206;SDS011;10761;48.532;8.026;2023-03-01T16:46:12;26.23;;;19.08;;
21206;SDS011;10761;48.532;8.026;2023-03-01T16:48:39;26.83;;;18.77;;
21206;SDS011;10761;48.532;8.026;2023-03-01T16:51:05;27.20;;;18.48;;
21206;SDS011;10761;48.532;8.026;2023-03-01T16:53:32;28.30;;;18.90;;
21206;SDS011;10761;48.532;8.026;2023-03-01T16:55:59;27.33;;;19.52;;
21206;SDS011;10761;48.532;8.026;2023-03-01T16:58:24;28.42;;;19.48;;
21206;SDS011;10761;48.532;8.026;2023-03-01T17:00:51;25.55;;;19.13;;
21206;SDS011;10761;48.532;8.026;2023-03-01T17:03:18;27.40;;;20.25;;
21206;SDS011;10761;48.532;8.026;2023-03-01T17:05:47;28.40;;;18.92;;
21206;SDS011;10761;48.532;8.026;2023-03-01T17:08:13;31.45;;;20.35;;
21206;SDS011;10761;48.532;8.026;2023-03-01T17:10:40;29.23;;;19.15;;
21206;SDS011;10761;48.532;8.026;2023-03-01T17:13:07;31.05;;;20.88;;
21206;SDS011;10761;48.532;8.026;2023-03-01T17:15:41;28.02;;;20.63;;
21206;SDS011;10761;48.532;8.026;2023-03-01T17:18:07;29.75;;;20.10;;
21206;SDS011;10761;48.532;8.026;2023-03-01T17:20:34;29.95;;;20.40;;
21206;SDS011;10761;48.532;8.026;2023-03-01T17:23:00;29.98;;;20.25;;
21206;SDS011;10761;48.532;8.026;2023-03-01T17:25:26;27.80;;;20.15;;
21206;SDS011;10761;48.532;8.026;2023-03-01T17:27:51;31.95;;;20.17;;
21206;SDS011;10761;48.532;8.026;2023-03-01T17:30:17;32.13;;;20.77;;
21206;SDS011;10761;48.532;8.026;2023-03-01T17:32:43;30.38;;;20.13;;
21206;SDS011;10761;48.532;8.026;2023-03-01T17:35:08;30.15;;;19.80;;
21206;SDS011;10761;48.532;8.026;2023-03-01T17:37:36;29.85;;;20.38;;
21206;SDS011;10761;48.532;8.026;2023-03-01T17:40:03;30.00;;;20.30;;
21206;SDS011;10761;48.532;8.026;2023-03-01T17:42:31;28.15;;;19.75;;
21206;SDS011;10761;48.532;8.026;2023-03-01T17:44:57;31.48;;;19.67;;
21206;SDS011;10761;48.532;8.026;2023-03-01T17:47:23;31.48;;;21.45;;
21206;SDS011;10761;48.532;8.026;2023-03-01T17:49:48;31.20;;;19.65;;
21206;SDS011;10761;48.532;8.026;2023-03-01T17:52:14;34.75;;;21.40;;
21206;SDS011;10761;48.532;8.026;2023-03-01T17:54:40;29.50;;;20.38;;
21206;SDS011;10761;48.532;8.026;2023-03-01T17:57:05;29.17;;;19.98;;
21206;SDS011;10761;48.532;8.026;2023-03-01T17:59:31;32.30;;;21.33;;
21206;SDS011;10761;48.532;8.026;2023-03-01T18:01:59;28.95;;;20.48;;
21206;SDS011;10761;48.532;8.026;2023-03-01T18:04:25;30.73;;;20.35;;
21206;SDS011;10761;48.532;8.026;2023-03-01T18:06:51;32.17;;;20.17;;
21206;SDS011;10761;48.532;8.026;2023-03-01T18:09:17;28.85;;;20.92;;
21206;SDS011;10761;48.532;8.026;2023-03-01T18:11:43;30.17;;;19.95;;
21206;SDS011;10761;48.532;8.026;2023-03-01T18:14:09;33.17;;;19.88;;
21206;SDS011;10761;48.532;8.026;2023-03-01T18:16:34;31.30;;;20.55;;
21206;SDS011;10761;48.532;8.026;2023-03-01T18:19:00;32.00;;;20.70;;
21206;SDS011;10761;48.532;8.026;2023-03-01T18:21:27;31.88;;;21.27;;
21206;SDS011;10761;48.532;8.026;2023-03-01T18:23:53;32.50;;;20.50;;
21206;SDS011;10761;48.532;8.026;2023-03-01T18:26:19;30.15;;;20.92;;
21206;SDS011;10761;48.532;8.026;2023-03-01T18:28:47;30.25;;;20.25;;
21206;SDS011;10761;48.532;8.026;2023-03-01T18:31:14;31.70;;;20.30;;
21206;SDS011;10761;48.532;8.026;2023-03-01T18:33:46;32.50;;;20.70;;
21206;SDS011;10761;48.532;8.026;2023-03-01T18:36:15;32.92;;;21.92;;
21206;SDS011;10761;48.532;8.026;2023-03-01T18:38:52;31.70;;;20.83;;
21206;SDS011;10761;48.532;8.026;2023-03-01T18:41:20;33.50;;;21.58;;
21206;SDS011;10761;48.532;8.026;2023-03-01T18:43:46;33.97;;;21.17;;
21206;SDS011;10761;48.532;8.026;2023-03-01T18:46:12;32.35;;;20.88;;
21206;SDS011;10761;48.532;8.026;2023-03-01T18:48:38;35.85;;;21.60;;
21206;SDS011;10761;48.532;8.026;2023-03-01T18:51:11;31.65;;;21.58;;
21206;SDS011;10761;48.532;8.026;2023-03-01T18:53:38;33.05;;;21.30;;
21206;SDS011;10761;48.532;8.026;2023-03-01T18:56:04;31.77;;;20.58;;
21206;SDS011;10761;48.532;8.026;2023-03-01T18:58:31;32.83;;;21.05;;
21206;SDS011;10761;48.532;8.026;2023-03-01T19:00:57;29.75;;;20.33;;
21206;SDS011;10761;48.532;8.026;2023-03-01T19:03:25;35.45;;;20.17;;
21206;SDS011;10761;48.532;8.026;2023-03-01T19:05:52;31.55;;;20.13;;
21206;SDS011;10761;48.532;8.026;2023-03-01T19:08:18;66.32;;;35.30;;
21206;SDS011;10761;48.532;8.026;2023-03-01T19:10:44;83.72;;;43.33;;
21206;SDS011;10761;48.532;8.026;2023-03-01T19:13:09;36.30;;;23.38;;
21206;SDS011;10761;48.532;8.026;2023-03-01T19:15:35;40.10;;;26.08;;
21206;SDS011;10761;48.532;8.026;2023-03-01T19:18:01;46.17;;;34.33;;
21206;SDS011;10761;48.532;8.026;2023-03-01T19:20:29;40.17;;;29.05;;
21206;SDS011;10761;48.532;8.026;2023-03-01T19:22:55;39.47;;;28.02;;
21206;SDS011;10761;48.532;8.026;2023-03-01T19:25:20;38.00;;;23.40;;
21206;SDS011;10761;48.532;8.026;2023-03-01T19:27:46;33.08;;;21.45;;
21206;SDS011;10761;48.532;8.026;2023-03-01T19:30:13;35.45;;;21.80;;
21206;SDS011;10761;48.532;8.026;2023-03-01T19:32:38;34.08;;;20.90;;
21206;SDS011;10761;48.532;8.026;2023-03-01T19:35:04;36.67;;;22.85;;
21206;SDS011;10761;48.532;8.026;2023-03-01T19:37:32;36.10;;;21.52;;
21206;SDS011;10761;48.532;8.026;2023-03-01T19:39:58;31.00;;;20.20;;
21206;SDS011;10761;48.532;8.026;2023-03-01T19:42:24;34.67;;;21.17;;
21206;SDS011;10761;48.532;8.026;2023-03-01T19:44:51;33.30;;;21.92;;
21206;SDS011;10761;48.532;8.026;2023-03-01T19:47:17;35.85;;;22.98;;
21206;SDS011;10761;48.532;8.026;2023-03-01T19:49:43;36.47;;;22.05;;
21206;SDS011;10761;48.532;8.026;2023-03-01T19:52:09;31.35;;;19.88;;
21206;SDS011;10761;48.532;8.026;2023-03-01T19:54:34;35.00;;;21.17;;
21206;SDS011;10761;48.532;8.026;2023-03-01T19:57:00;29.77;;;20.10;;
21206;SDS011;10761;48.532;8.026;2023-03-01T19:59:26;29.75;;;20.17;;
21206;SDS011;10761;48.532;8.026;2023-03-01T20:01:52;32.95;;;21.13;;
21206;SDS011;10761;48.532;8.026;2023-03-01T20:04:18;37.22;;;22.40;;
21206;SDS011;10761;48.532;8.026;2023-03-01T20:06:44;35.55;;;21.92;;
21206;SDS011;10761;48.532;8.026;2023-03-01T20:09:11;33.08;;;21.00;;
21206;SDS011;10761;48.532;8.026;2023-03-01T20:11:38;35.00;;;22.13;;
21206;SDS011;10761;48.532;8.026;2023-03-01T20:14:03;29.17;;;20.23;;
21206;SDS011;10761;48.532;8.026;2023-03-01T20:16:34;31.73;;;20.98;;
21206;SDS011;10761;48.532;8.026;2023-03-01T20:19:01;33.90;;;21.52;;
21206;SDS011;10761;48.532;8.026;2023-03-01T20:21:27;33.00;;;21.63;;
21206;SDS011;10761;48.532;8.026;2023-03-01T20:23:52;32.97;;;20.48;;
21206;SDS011;10761;48.532;8.026;2023-03-01T20:26:19;33.70;;;21.40;;
21206;SDS011;10761;48.532;8.026;2023-03-01T20:28:50;32.13;;;20.77;;
21206;SDS011;10761;48.532;8.026;2023-03-01T20:31:18;31.95;;;19.92;;
21206;SDS011;10761;48.532;8.026;2023-03-01T20:33:45;38.17;;;21.20;;
21206;SDS011;10761;48.532;8.026;2023-03-01T20:36:11;32.95;;;20.30;;
21206;SDS011;10761;48.532;8.026;2023-03-01T20:38:36;32.40;;;21.20;;
21206;SDS011;10761;48.532;8.026;2023-03-01T20:43:33;33.97;;;20.25;;
21206;SDS011;10761;48.532;8.026;2023-03-01T20:46:06;30.45;;;20.98;;
21206;SDS011;10761;48.532;8.026;2023-03-01T20:48:35;29.08;;;19.52;;
21206;SDS011;10761;48.532;8.026;2023-03-01T20:51:05;32.38;;;19.92;;
21206;SDS011;10761;48.532;8.026;2023-03-01T20:53:31;33.88;;;20.20;;
21206;SDS011;10761;48.532;8.026;2023-03-01T20:56:01;29.67;;;21.15;;
21206;SDS011;10761;48.532;8.026;2023-03-01T20:58:28;29.98;;;20.63;;
21206;SDS011;10761;48.532;8.026;2023-03-01T21:00:56;34.03;;;21.95;;
21206;SDS011;10761;48.532;8.026;2023-03-01T21:03:22;32.85;;;21.08;;
21206;SDS011;10761;48.532;8.026;2023-03-01T21:05:48;32.05;;;20.35;;
21206;SDS011;10761;48.532;8.026;2023-03-01T21:08:14;30.95;;;20.30;;
21206;SDS011;10761;48.532;8.026;2023-03-01T21:10:39;34.78;;;22.13;;
21206;SDS011;10761;48.532;8.026;2023-03-01T21:13:05;38.05;;;23.52;;
21206;SDS011;10761;48.532;8.026;2023-03-01T21:15:30;35.70;;;22.42;;
21206;SDS011;10761;48.532;8.026;2023-03-01T21:17:56;35.60;;;21.75;;
21206;SDS011;10761;48.532;8.026;2023-03-01T21:20:22;34.60;;;21.13;;
21206;SDS011;10761;48.532;8.026;2023-03-01T21:22:48;35.17;;;22.77;;
21206;SDS011;10761;48.532;8.026;2023-03-01T21:25:14;36.38;;;22.17;;
21206;SDS011;10761;48.532;8.026;2023-03-01T21:27:39;31.05;;;20.23;;
21206;SDS011;10761;48.532;8.026;2023-03-01T21:30:05;31.67;;;20.80;;
21206;SDS011;10761;48.532;8.026;2023-03-01T21:32:31;36.95;;;23.17;;
21206;SDS011;10761;48.532;8.026;2023-03-01T21:34:56;34.63;;;22.15;;
21206;SDS011;10761;48.532;8.026;2023-03-01T21:37:23;34.42;;;21.70;;
21206;SDS011;10761;48.532;8.026;2023-03-01T21:39:51;37.13;;;20.88;;
21206;SDS011;10761;48.532;8.026;2023-03-01T21:42:17;40.35;;;21.45;;
21206;SDS011;10761;48.532;8.026;2023-03-01T21:44:42;32.15;;;21.33;;
21206;SDS011;10761;48.532;8.026;2023-03-01T21:47:08;33.28;;;21.90;;
21206;SDS011;10761;48.532;8.026;2023-03-01T21:49:34;33.60;;;21.73;;
21206;SDS011;10761;48.532;8.026;2023-03-01T21:52:01;31.27;;;19.95;;
21206;SDS011;10761;48.532;8.026;2023-03-01T21:54:26;29.17;;;20.02;;
21206;SDS011;10761;48.532;8.026;2023-03-01T21:56:52;34.10;;;21.27;;
21206;SDS011;10761;48.532;8.026;2023-03-01T21:59:21;32.00;;;21.10;;
21206;SDS011;10761;48.532;8.026;2023-03-01T22:01:48;34.70;;;22.02;;
21206;SDS011;10761;48.532;8.026;2023-03-01T22:04:15;33.35;;;21.05;;
21206;SDS011;10761;48.532;8.026;2023-03-01T22:06:42;32.33;;;19.63;;
21206;SDS011;10761;48.532;8.026;2023-03-01T22:11:40;34.75;;;20.80;;
21206;SDS011;10761;48.532;8.026;2023-03-01T22:14:18;34.08;;;21.45;;
21206;SDS011;10761;48.532;8.026;2023-03-01T22:16:47;34.78;;;21.45;;
21206;SDS011;10761;48.532;8.026;2023-03-01T22:19:15;35.38;;;22.48;;
21206;SDS011;10761;48.532;8.026;2023-03-01T22:21:42;31.65;;;21.63;;
21206;SDS011;10761;48.532;8.026;2023-03-01T22:24:10;38.70;;;22.50;;
21206;SDS011;10761;48.532;8.026;2023-03-01T22:26:37;32.38;;;21.77;;
21206;SDS011;10761;48.532;8.026;2023-03-01T22:29:07;39.67;;;23.95;;
21206;SDS011;10761;48.532;8.026;2023-03-01T22:31:35;36.70;;;22.40;;
21206;SDS011;10761;48.532;8.026;2023-03-01T22:34:00;50.63;;;28.38;;
21206;SDS011;10761;48.532;8.026;2023-03-01T22:36:27;73.50;;;38.83;;
21206;SDS011;10761;48.532;8.026;2023-03-01T22:38:53;62.83;;;34.35;;
21206;SDS011;10761;48.532;8.026;2023-03-01T22:41:27;49.47;;;29.25;;
21206;SDS011;10761;48.532;8.026;2023-03-01T22:43:54;89.65;;;48.15;;
21206;SDS011;10761;48.532;8.026;2023-03-01T22:46:20;87.55;;;49.83;;
21206;SDS011;10761;48.532;8.026;2023-03-01T22:48:46;47.50;;;31.67;;
21206;SDS011;10761;48.532;8.026;2023-03-01T22:51:13;36.67;;;22.20;;
21206;SDS011;10761;48.532;8.026;2023-03-01T22:53:42;35.83;;;21.80;;
21206;SDS011;10761;48.532;8.026;2023-03-01T22:56:15;37.60;;;22.30;;
21206;SDS011;10761;48.532;8.026;2023-03-01T22:58:43;34.97;;;21.60;;
21206;SDS011;10761;48.532;8.026;2023-03-01T23:01:10;32.35;;;20.77;;
21206;SDS011;10761;48.532;8.026;2023-03-01T23:03:36;35.72;;;23.33;;
21206;SDS011;10761;48.532;8.026;2023-03-01T23:06:02;38.17;;;22.40;;
21206;SDS011;10761;48.532;8.026;2023-03-01T23:08:28;36.75;;;22.48;;
21206;SDS011;10761;48.532;8.026;2023-03-01T23:10:53;37.92;;;24.60;;
21206;SDS011;10761;48.532;8.026;2023-03-01T23:13:19;36.25;;;22.17;;
21206;SDS011;10761;48.532;8.026;2023-03-01T23:15:44;35.80;;;22.77;;
21206;SDS011;10761;48.532;8.026;2023-03-01T23:18:10;39.55;;;26.38;;
21206;SDS011;10761;48.532;8.026;2023-03-01T23:20:35;37.20;;;22.88;;
21206;SDS011;10761;48.532;8.026;2023-03-01T23:23:01;39.50;;;23.00;;
21206;SDS011;10761;48.532;8.026;2023-03-01T23:25:27;38.03;;;23.02;;
21206;SDS011;10761;48.532;8.026;2023-03-01T23:27:53;34.20;;;22.55;;
21206;SDS011;10761;48.532;8.026;2023-03-01T23:30:19;34.50;;;21.77;;
21206;SDS011;10761;48.532;8.026;2023-03-01T23:32:45;34.60;;;22.67;;
21206;SDS011;10761;48.532;8.026;2023-03-01T23:35:11;36.30;;;22.77;;
21206;SDS011;10761;48.532;8.026;2023-03-01T23:37:36;37.92;;;22.17;;
21206;SDS011;10761;48.532;8.026;2023-03-01T23:40:02;38.67;;;23.30;;
21206;SDS011;10761;48.532;8.026;2023-03-01T23:42:30;36.22;;;22.50;;
21206;SDS011;10761;48.532;8.026;2023-03-01T23:44:59;37.03;;;22.42;;
21206;SDS011;10761;48.532;8.026;2023-03-01T23:47:24;33.50;;;20.98;;
21206;SDS011;10761;48.532;8.026;2023-03-01T23:49:50;34.38;;;22.25;;
21206;SDS011;10761;48.532;8.026;2023-03-01T23:52:15;39.08;;;23.60;;
21206;SDS011;10761;48.532;8.026;2023-03-01T23:54:42;34.05;;;21.60;;
21206;SDS011;10761;48.532;8.026;2023-03-01T23:57:08;38.03;;;22.05;;
21206;SDS011;10761;48.532;8.026;2023-03-01T23:59:33;34.78;;;21.27;;
